• Join FlightAware (Why Join?)
  • Login
  • US Flag 
07:09AM EDT


 

Airport Tracker/Info


-or-


 

Live Flight TrackerFlight Track Log ✈ ASQ4219 ✈ 10-Jun-2013 ✈ KIAH - KSLC

Flight Track Log - Related Links

Times and Time Zones

All times are in EDT time to prevent confusion due to time zone crossing. See the ASQ4219 flight status page for this flight to view local times or setup timezone preferences in your user account.

Time Position Orientation Groundspeed Altitude Reporting Facility
EDT Latitude Longitude Course Direction KTS MPH feet Rate Location/Type
03:51PM 29.9469 -95.3431 276° West 186 214 900  Level Houston Center
03:52PM 29.9056 -95.3914 225° Southwest 234 269 2,600 1,860 Climbing Houston Center
03:53PM 29.8633 -95.4772 240° Southwest 262 302 5,300 2,340 Climbing Houston Center
03:54PM 30.0386 -95.8623 276° West  Level FlightAware Approximate
03:54PM 29.8839 -95.5611 286° West 284 327 7,500  Level Houston Center
03:55PM 30.0496 -95.9953 276° West  Level FlightAware Approximate
03:55PM 29.9161 -95.6439 294° West 285 328 9,800  Level Houston Center
03:56PM 30.0735 -96.1249 276° West  Level FlightAware Approximate
03:56PM 29.9478 -95.7311 293° West 291 335 11,300  Level Houston Center
03:57PM 29.9850 -95.8311 293° West 329 379 12,300 1,020 Climbing Houston Center
03:58PM 30.0328 -95.9611 293° West 363 418 13,500 1,020 Climbing Houston Center
03:59PM 30.0733 -96.0728 293° West 375 432 14,500 960 Climbing Houston Center
04:00PM 30.0922 -96.1997 280° West 397 457 15,500 900 Climbing Houston Center
04:01PM 30.1114 -96.3264 280° West 402 463 16,400 960 Climbing Houston Center
04:02PM 30.1325 -96.4628 280° West 409 471 17,500 960 Climbing Houston Center
04:03PM 30.1522 -96.5936 280° West 410 472 18,500 960 Climbing Houston Center
04:04PM 30.1722 -96.7250 280° West 410 472 19,500 960 Climbing Houston Center
04:05PM 30.1956 -96.8794 280° West 412 474 20,600 960 Climbing Houston Center
04:06PM 30.2153 -97.0122 280° West 413 475 21,600 960 Climbing Houston Center
04:07PM 30.2342 -97.1467 279° West 417 480 22,600 660 Climbing Houston Center
04:08PM 30.2544 -97.2811 280° West 418 481 23,000 420 Climbing Houston Center
04:09PM 30.2750 -97.4233 280° West 436 502 23,500 780 Climbing Houston Center
04:10PM 30.2944 -97.5644 279° West 438 504 24,700 1,140 Climbing Houston Center
04:11PM 30.3144 -97.7003 280° West 427 491 25,900 1,080 Climbing Houston Center
04:12PM 30.3336 -97.8333 280° West 417 480 27,000 960 Climbing Houston Center
04:14PM 30.3443 -97.9712 278° West  Level FlightAware Approximate
04:14PM 30.3519 -97.9672 278° West 416 479 28,000  Level Houston Center
04:15PM 30.3711 -98.1006 279° West 415 478 29,000 960 Climbing Houston Center
04:16PM 30.3925 -98.2572 279° West 418 481 30,100 960 Climbing Houston Center
04:17PM 30.4114 -98.3900 279° West 415 478 31,100 900 Climbing Houston Center
04:18PM 30.4289 -98.5236 279° West 415 478 32,000 720 Climbing Houston Center
04:19PM 30.4472 -98.6600 279° West 423 487 32,700 720 Climbing Houston Center
04:20PM 30.4647 -98.7953 279° West 421 484 33,600 780 Climbing Houston Center
04:21PM 30.4847 -98.9325 280° West 426 490 34,400 780 Climbing Houston Center
04:22PM 30.5033 -99.0672 279° West 421 484 35,300 720 Climbing Houston Center
04:23PM 30.5228 -99.2231 278° West 416 479 36,000 300 Climbing Houston Center
04:24PM 30.5408 -99.3583 279° West 425 489 36,000  Level Houston Center
04:25PM 30.5586 -99.4981 278° West 438 504 36,000  Level Houston Center
04:26PM 30.5781 -99.6419 279° West 452 520 36,000  Level Houston Center
04:27PM 30.5944 -99.7872 278° West 456 525 36,000  Level Houston Center
04:28PM 30.6428 -99.9256 292° West 515 593 36,000  Level Houston Center
04:29PM 30.7044 -100.0894 294° West 469 540 36,000  Level Houston Center
04:30PM 30.7567 -100.2203 295° West 463 533 36,000  Level Houston Center
04:31PM 30.8089 -100.3528 295° West 452 520 36,000 -60 Level Houston Center
04:32PM 30.8622 -100.4869 295° West 451 519 35,900  Descending Houston Center
04:33PM 30.9136 -100.6292 293° West 473 544 36,000  Climbing Houston Center
04:34PM 30.9758 -100.7875 295° West 439 505 36,000  Level Houston Center
04:35PM 31.0278 -100.9283 293° West 465 535 36,000  Level Houston Center
04:36PM 31.0781 -101.0644 293° West 467 537 36,000  Level Houston Center
04:37PM 31.1303 -101.1953 295° West 444 511 36,000  Level Houston Center
04:38PM 31.1889 -101.3489 294° West 452 520 36,000  Level Houston Center
04:39PM 31.2383 -101.4839 293° West 455 524 36,000  Level Houston Center
04:40PM 31.2861 -101.6186 293° West 453 521 36,000  Level Houston Center
04:41PM 31.3386 -101.7553 294° West 459 528 36,000  Level Houston Center
04:42PM 31.3872 -101.8889 293° West 454 522 36,000  Level Albuquerque Center
04:43PM 31.4383 -102.0364 292° West 463 533 36,000  Level Albuquerque Center
04:45PM 31.4892 -102.1717 294° West 455 524 36,000  Level Albuquerque Center
04:46PM 31.5453 -102.3206 294° West 454 522 36,000  Level Albuquerque Center
04:47PM 31.5936 -102.4561 293° West 456 525 36,000  Level Albuquerque Center
04:47PM 31.6339 -102.5661 293° West 459 528 36,000  Level Fort Worth Center
04:48PM 31.6822 -102.7031 293° West 459 528 36,000  Level Fort Worth Center
04:49PM 31.7008 -102.7575 292° West 458 527 36,000  Level Albuquerque Center
04:50PM 31.7497 -102.8958 293° West 459 528 36,000  Level Albuquerque Center
04:51PM 31.7986 -103.0336 293° West 460 529 36,000  Level Albuquerque Center
04:52PM 31.8450 -103.1631 293° West 459 528 36,000  Level Albuquerque Center
04:53PM 31.9183 -103.2833 306° West 466 536 36,000  Level Albuquerque Center
04:54PM 32.0156 -103.3744 322° Northwest 453 521 36,000  Level Albuquerque Center
04:55PM 32.1356 -103.4861 322° Northwest 455 524 36,000  Level Albuquerque Center
04:56PM 32.2339 -103.5794 321° Northwest 455 524 36,000  Level Albuquerque Center
04:57PM 32.3347 -103.6725 322° Northwest 457 526 36,000  Level Albuquerque Center
04:58PM 32.4331 -103.7644 322° Northwest 454 522 36,000  Level Albuquerque Center
04:59PM 32.5314 -103.8567 322° Northwest 453 521 36,000  Level Albuquerque Center
05:00PM 32.6294 -103.9497 321° Northwest 452 520 36,000  Level Albuquerque Center
05:01PM 32.7511 -104.0594 323° Northwest 451 519 36,000  Level Albuquerque Center
05:02PM 32.8483 -104.1536 321° Northwest 450 518 36,000  Level Albuquerque Center
05:03PM 32.9464 -104.2453 322° Northwest 449 517 36,000  Level Albuquerque Center
05:04PM 33.0536 -104.3400 323° Northwest 445 512 36,000  Level Albuquerque Center
05:05PM 33.1639 -104.4092 332° Northwest 448 516 36,000  Level Albuquerque Center
05:06PM 33.2647 -104.4736 332° Northwest 452 520 36,000  Level Albuquerque Center
05:07PM 33.3800 -104.5344 336° Northwest 452 520 36,000  Level Albuquerque Center
05:08PM 33.5131 -104.6078 335° Northwest 462 532 36,000  Level Albuquerque Center
05:09PM 33.6342 -104.6756 335° Northwest 449 517 36,000  Level Albuquerque Center
05:10PM 33.7489 -104.7331 337° Northwest 449 517 36,000  Level Albuquerque Center
05:11PM 33.8731 -104.7958 337° Northwest 449 517 36,000  Level Albuquerque Center
05:12PM 33.9892 -104.8525 338° Northwest 449 517 36,000  Level Albuquerque Center
05:13PM 34.1011 -104.9050 339° North 443 510 36,000  Level Albuquerque Center
05:14PM 34.2167 -104.9664 336° Northwest 445 512 36,000  Level Albuquerque Center
05:15PM 34.3036 -105.0767 314° West 444 511 36,000  Level Albuquerque Center
05:16PM 34.3933 -105.1814 316° Northwest 444 511 36,000  Level Albuquerque Center
05:17PM 34.4825 -105.2875 316° Northwest 444 511 36,000  Level Albuquerque Center
05:18PM 34.5722 -105.3944 316° Northwest 446 513 36,000  Level Albuquerque Center
05:19PM 34.6769 -105.5192 316° Northwest 446 513 36,000  Level Albuquerque Center
05:20PM 34.7675 -105.6269 316° Northwest 448 516 36,000  Level Albuquerque Center
05:22PM 34.8569 -105.7347 315° West 448 516 36,000  Level Albuquerque Center
05:23PM 34.9467 -105.8436 315° West 450 518 36,000  Level Albuquerque Center
05:24PM 35.0386 -105.9528 316° Northwest 449 517 36,000  Level Albuquerque Center
05:25PM 35.1250 -106.0600 315° West 447 514 36,000  Level Albuquerque Center
05:26PM 35.2136 -106.1683 315° West 447 514 36,000  Level Albuquerque Center
05:27PM 35.3017 -106.2744 315° West 451 519 36,000  Level Albuquerque Center
05:28PM 35.3900 -106.3808 316° Northwest 450 518 36,000  Level Albuquerque Center
05:29PM 35.4772 -106.4881 315° West 448 516 36,000  Level Albuquerque Center
05:30PM 35.5819 -106.6181 315° West 450 518 36,000  Level Albuquerque Center
05:31PM 35.6744 -106.7339 315° West 449 517 36,000  Level Albuquerque Center
05:32PM 35.7581 -106.8375 315° West 447 514 36,000  Level Albuquerque Center
05:33PM 35.8422 -106.9431 315° West 450 518 36,000  Level Albuquerque Center
05:34PM 35.9306 -107.0542 314° West 450 518 36,000  Level Albuquerque Center
05:35PM 36.0175 -107.1636 315° West 448 516 36,000  Level Albuquerque Center
05:36PM 36.1214 -107.2944 315° West 450 518 36,000  Level Albuquerque Center
05:37PM 36.2053 -107.4003 315° West 450 518 36,000  Level Albuquerque Center
05:38PM 36.3028 -107.5253 314° West 452 520 36,000  Level Albuquerque Center
05:39PM 36.3872 -107.6322 314° West 453 521 36,000  Level Albuquerque Center
05:39PM 36.4281 -107.6850 314° West 451 519 36,000  Level Denver Center
05:40PM 36.5119 -107.7917 314° West 453 521 36,000  Level Denver Center
05:42PM 36.6086 -107.9164 314° West 451 519 36,000  Level Denver Center
05:43PM 36.6911 -108.0233 314° West 444 511 36,000  Level Denver Center
05:44PM 36.8006 -108.1378 320° Northwest 460 529 36,000  Level Denver Center
05:45PM 36.9042 -108.2186 328° Northwest 461 531 36,000  Level Denver Center
05:46PM 37.0253 -108.3125 328° Northwest 461 531 36,000  Level Denver Center
05:47PM 37.1297 -108.3931 328° Northwest 461 531 36,000  Level Denver Center
05:48PM 37.2492 -108.4864 328° Northwest 455 524 36,000  Level Denver Center
05:49PM 37.3528 -108.5664 328° Northwest 454 522 36,000  Level Denver Center
05:50PM 37.4739 -108.6617 328° Northwest 458 527 36,000  Level Denver Center
05:51PM 37.5764 -108.7450 327° Northwest 458 527 36,000  Level Denver Center
05:52PM 37.6958 -108.8400 328° Northwest 454 522 36,000  Level Denver Center
05:53PM 37.7992 -108.9219 328° Northwest 457 526 36,000  Level Denver Center
05:54PM 37.9017 -109.0053 327° Northwest 457 526 36,000  Level Denver Center
05:55PM 38.0214 -109.1017 328° Northwest 456 525 36,000  Level Denver Center
05:56PM 38.1225 -109.1867 327° Northwest 461 531 36,000  Level Denver Center
05:57PM 38.2442 -109.2825 328° Northwest 460 529 36,000  Level Denver Center
05:58PM 38.3306 -109.3544 327° Northwest 463 533 36,000  Level Denver Center
05:59PM 38.4353 -109.4403 327° Northwest 465 535 36,000 -120 Level Denver Center
06:00PM 38.5744 -109.5556 327° Northwest 466 536 35,800 -1,200 Descending Denver Center
06:01PM 38.6953 -109.6550 327° Northwest 462 532 33,600 -1,860 Descending Denver Center
06:02PM 38.8025 -109.7433 327° Northwest 470 541 32,100 -840 Descending Denver Center
06:03PM 38.9069 -109.8314 327° Northwest 470 541 32,000 -120 Descending Denver Center
06:04PM 38.9592 -109.8753 327° Northwest 463 533 32,000  Level Salt Lake Center
06:05PM 39.0814 -109.9772 327° Northwest 467 537 32,000  Level Salt Lake Center
06:05PM 39.1328 -110.0211 326° Northwest 465 535 32,000  Level Denver Center
06:06PM 39.2436 -110.1417 320° Northwest 467 537 32,000  Level Denver Center
06:07PM 39.3317 -110.2803 309° West 450 518 32,000  Level Denver Center
06:09PM 39.4231 -110.4222 310° West 456 525 32,000  Level Denver Center
06:10PM 39.5025 -110.5475 309° West 465 535 32,000  Level Denver Center
06:11PM 39.5933 -110.6906 310° West 461 531 32,000 -540 Level Denver Center
06:12PM 39.6722 -110.8144 310° West 463 533 30,900 -1,920 Descending Denver Center
06:13PM 39.7789 -110.9831 309° West 471 542 27,700 -2,580 Descending Salt Lake Center
06:14PM 39.8575 -111.1075 309° West 467 537 25,200 -2,520 Descending Salt Lake Center
06:15PM 39.9472 -111.2517 309° West 461 531 22,600 -2,280 Descending Salt Lake Center
06:16PM 40.0189 -111.3694 308° West 437 503 20,500 -1,800 Descending Salt Lake Center
06:17PM 40.1006 -111.5006 309° West 422 486 19,000 -780 Descending Salt Lake Center
06:18PM 40.1581 -111.6250 301° West 400 460 19,000  Level Salt Lake Center
06:18PM 40.1806 -111.7017 291° West 398 458 19,000 -840 Level Salt Lake Center
06:19PM 40.2067 -111.7522 304° West 392 451 18,200 -1,320 Descending Salt Lake Center
06:20PM 40.2497 -111.8711 295° West 357 411 17,000 -840 Descending Salt Lake Center
06:20PM 40.2750 -111.9367 297° West 372 428 17,000 -780 Level Salt Lake Center
06:21PM 40.3175 -111.9731 327° Northwest 388 447 16,200 -1,860 Descending Salt Lake Center
06:21PM 40.3603 -112.0092 327° Northwest 410 472 15,300 -1,200 Descending Salt Lake Center
06:22PM 40.4153 -112.0436 335° Northwest 399 459 15,000 -1,680 Descending Salt Lake Center
06:23PM 40.5375 -112.0678 351° North 390 449 12,500 -1,920 Descending Salt Lake Center
06:24PM 40.6544 -112.0819 355° North 370 426 11,000 -720 Descending Salt Lake Center
06:25PM 40.7450 -112.0936 354° North 339 390 11,000 -360 Level Salt Lake Center
06:26PM 40.8236 -112.1000 356° North 277 319 10,400 -840 Descending Salt Lake Center
06:27PM 40.8922 -112.0978 North 259 298 9,400 -1,020 Descending Salt Lake Center